首页
METAR-TAF:

METAR-TAF

机场 :

太原武宿国际机场

太原, 中华人民共和国

纬度: 37-47N, 经度: 112-33E, 海拔: 779米

当前天气观测

该预报发布于47分钟前的09:30 UTC
风速17节,风向
温度 26°C
湿度 48%
气压 1009 hPa
能見度: 6000
少量云层高于3300英尺, 塔状积云.

METAR: ZBYN 160930Z 18009MPS 6000 FEW033TCU 26/14 Q1009 NOSIG

时间: 18:17 (10:17 UTC)

预报

该预报发布于7小时和8分钟前的03:09 UTC
预报有效从16日的 06点(UTC)到 17日的 06点(UTC)
风速8节,风向
能見度: 6000

TAF: ZBYN 160309Z 1606/1706 09004MPS 6000 NSC TX33/1607Z TN17/1621Z

超过4000个机场的气象观测和天气预报(METAR&TAF报告)。

可查询的气象台以黄色和红色小点在地图上表示。

将鼠标移到小点上方,可查看气象台名称。

然后点击查看天气观测和预报。

如需切换地图:点击带黑十字的绿色按钮放大地图;点击带横线的绿色按钮缩小地图;或者点击绿色箭头查看邻近地区的地图。


METAR-TAF: